createdAt,value
2022-07-25T00:01:42.373Z,73.63
2022-07-25T00:04:11.099Z,73.59
2022-07-25T00:06:39.217Z,72.96
2022-07-25T00:09:05.725Z,73.20
2022-07-25T00:11:32.344Z,73.09
2022-07-25T00:13:59.649Z,73.42
2022-07-25T00:16:26.148Z,73.57
2022-07-25T00:18:52.677Z,73.48
2022-07-25T00:21:19.114Z,73.90
2022-07-25T00:23:45.556Z,73.88
2022-07-25T00:26:11.989Z,73.98
2022-07-25T00:28:38.478Z,74.17
2022-07-25T00:31:05.131Z,74.36
2022-07-25T00:33:31.667Z,73.83
2022-07-25T00:35:58.331Z,72.79
2022-07-25T00:38:24.773Z,72.58
2022-07-25T00:40:54.585Z,70.77
2022-07-25T00:43:22.428Z,67.26
2022-07-25T00:45:48.822Z,65.23
2022-07-25T00:48:15.281Z,62.72
2022-07-25T00:50:41.965Z,62.63
2022-07-25T00:53:09.551Z,62.08
2022-07-25T00:55:37.221Z,61.47
2022-07-25T00:58:04.028Z,61.17
2022-07-25T01:00:30.576Z,60.94
2022-07-25T01:02:57.434Z,60.65
2022-07-25T01:05:23.988Z,60.37
2022-07-25T01:07:51.908Z,60.11
2022-07-25T01:10:18.424Z,60.99
2022-07-25T01:12:55.133Z,60.42
2022-07-25T01:15:23.781Z,60.52
2022-07-25T01:17:51.014Z,60.20
2022-07-25T01:20:19.409Z,60.51
2022-07-25T01:22:46.315Z,60.26
2022-07-25T01:25:14.251Z,60.27
2022-07-25T01:27:42.095Z,60.70
2022-07-25T01:30:10.845Z,61.10
2022-07-25T01:32:37.610Z,63.11
2022-07-25T01:35:06.955Z,63.61
2022-07-25T01:37:34.078Z,63.24
2022-07-25T01:40:00.884Z,64.24
2022-07-25T01:42:28.107Z,65.21
2022-07-25T01:44:55.040Z,66.32
2022-07-25T01:47:21.701Z,66.43
2022-07-25T01:49:48.138Z,66.91
2022-07-25T01:52:14.679Z,66.13
2022-07-25T01:54:41.775Z,64.52
2022-07-25T01:57:10.451Z,64.87
2022-07-25T01:59:39.249Z,64.96
2022-07-25T02:02:07.142Z,64.60
2022-07-25T02:04:34.883Z,65.57
2022-07-25T02:07:01.526Z,65.33
2022-07-25T02:09:28.057Z,65.61
2022-07-25T02:11:54.526Z,66.31
2022-07-25T02:14:21.098Z,65.74
2022-07-25T02:16:47.763Z,65.86
2022-07-25T02:19:14.320Z,65.88
2022-07-25T02:21:41.043Z,65.68
2022-07-25T02:24:08.205Z,64.85
2022-07-25T02:26:35.039Z,65.98
2022-07-25T02:29:01.483Z,66.37
2022-07-25T02:31:27.944Z,65.34
2022-07-25T02:33:54.377Z,64.33
2022-07-25T02:36:21.157Z,64.52
2022-07-25T02:38:48.341Z,64.35
2022-07-25T02:41:14.778Z,64.28
2022-07-25T02:43:41.225Z,64.68
2022-07-25T02:46:07.738Z,64.67
2022-07-25T02:48:34.436Z,64.00
2022-07-25T02:51:00.938Z,63.19
2022-07-25T02:53:47.075Z,63.36
2022-07-25T02:56:14.142Z,63.12
2022-07-25T02:58:41.389Z,62.83
2022-07-25T03:01:08.450Z,62.55
2022-07-25T03:03:34.950Z,62.70
2022-07-25T03:06:01.656Z,62.72
2022-07-25T03:08:28.576Z,62.21
2022-07-25T03:10:55.107Z,62.84
2022-07-25T03:13:21.540Z,62.50
2022-07-25T03:15:48.650Z,62.25
2022-07-25T03:18:15.127Z,61.41
2022-07-25T03:20:41.651Z,61.05
2022-07-25T03:23:08.133Z,61.09
2022-07-25T03:25:34.550Z,61.39
2022-07-25T03:28:00.979Z,61.71
2022-07-25T03:30:27.537Z,61.32
2022-07-25T03:32:54.952Z,62.52
2022-07-25T03:35:21.766Z,63.59
2022-07-25T03:37:48.249Z,62.87
2022-07-25T03:40:16.008Z,64.05
2022-07-25T03:42:42.868Z,64.80
2022-07-25T03:45:10.004Z,65.87
2022-07-25T03:47:36.678Z,66.65
2022-07-25T03:50:03.550Z,67.54
2022-07-25T03:52:29.984Z,68.10
2022-07-25T03:54:56.449Z,68.71
2022-07-25T03:57:22.917Z,68.93
2022-07-25T03:59:49.328Z,69.75
2022-07-25T04:02:15.843Z,70.05
2022-07-25T04:04:43.389Z,68.85
2022-07-25T04:07:09.916Z,67.50
2022-07-25T04:09:37.199Z,66.41
2022-07-25T04:12:03.999Z,65.19
2022-07-25T04:14:30.417Z,64.49
2022-07-25T04:16:56.959Z,64.13
2022-07-25T04:19:23.544Z,63.18
2022-07-25T04:21:52.834Z,62.79
2022-07-25T04:24:19.287Z,62.45
2022-07-25T04:26:45.709Z,62.09
2022-07-25T04:29:12.159Z,62.78
2022-07-25T04:31:38.744Z,61.56
2022-07-25T04:34:05.705Z,61.88
2022-07-25T04:36:32.401Z,61.40
2022-07-25T04:38:58.834Z,61.86
2022-07-25T04:41:25.301Z,61.30
2022-07-25T04:43:51.812Z,61.04
2022-07-25T04:46:20.217Z,61.21
2022-07-25T04:48:47.340Z,60.98
2022-07-25T04:51:15.492Z,60.78
2022-07-25T04:53:42.070Z,60.31
2022-07-25T04:56:09.050Z,60.38
2022-07-25T04:58:35.617Z,60.69
2022-07-25T05:01:02.426Z,60.72
2022-07-25T05:03:28.973Z,60.05
2022-07-25T05:05:55.489Z,59.99
2022-07-25T05:08:21.911Z,59.90
2022-07-25T05:10:48.336Z,59.83
2022-07-25T05:13:14.869Z,60.11
2022-07-25T05:15:42.770Z,60.46
2022-07-25T05:18:09.333Z,60.02
2022-07-25T05:23:03.415Z,60.51
2022-07-25T05:25:29.865Z,59.47
2022-07-25T05:27:58.504Z,59.35
2022-07-25T05:30:25.289Z,58.97
2022-07-25T05:32:52.185Z,58.89
2022-07-25T05:35:18.683Z,58.99
2022-07-25T05:37:45.161Z,59.10
2022-07-25T05:40:11.686Z,58.74
2022-07-25T05:42:38.176Z,58.74
2022-07-25T05:45:05.435Z,58.91
2022-07-25T05:47:31.874Z,58.68
2022-07-25T05:49:58.409Z,59.27
2022-07-25T05:52:24.873Z,58.82
2022-07-25T05:54:51.444Z,58.74
2022-07-25T05:57:17.936Z,58.80
2022-07-25T05:59:44.384Z,58.50
2022-07-25T06:02:11.139Z,58.40
2022-07-25T06:04:37.852Z,58.20
2022-07-25T06:07:04.343Z,58.16
2022-07-25T06:09:31.855Z,58.59
2022-07-25T06:12:01.068Z,57.92
2022-07-25T06:14:28.907Z,58.14
2022-07-25T06:16:55.557Z,58.49
2022-07-25T06:19:22.369Z,57.82
2022-07-25T06:21:48.864Z,57.53
2022-07-25T06:24:15.523Z,57.02
2022-07-25T06:26:42.740Z,57.60
2022-07-25T06:29:09.233Z,57.30
2022-07-25T06:31:35.688Z,56.92
2022-07-25T06:34:02.202Z,56.86
2022-07-25T06:36:32.538Z,56.88
2022-07-25T06:38:59.728Z,55.70
2022-07-25T06:41:26.570Z,55.72
2022-07-25T06:43:53.060Z,55.24
2022-07-25T06:46:19.577Z,54.89
2022-07-25T06:48:46.071Z,54.85
2022-07-25T06:51:12.705Z,54.74
2022-07-25T06:53:39.132Z,54.58
2022-07-25T06:56:05.942Z,54.21
2022-07-25T06:58:32.373Z,53.58
2022-07-25T07:01:01.063Z,53.85
2022-07-25T07:03:28.037Z,53.13
2022-07-25T07:05:54.524Z,52.73
2022-07-25T07:08:21.003Z,51.23
2022-07-25T07:10:47.440Z,51.15
2022-07-25T07:13:23.871Z,50.99
2022-07-25T07:15:51.429Z,51.30
2022-07-25T07:18:19.272Z,51.85
2022-07-25T07:20:46.272Z,51.09
2022-07-25T07:23:16.601Z,51.21
2022-07-25T07:25:46.076Z,49.66
2022-07-25T07:28:12.738Z,49.44
2022-07-25T07:31:13.526Z,50.12
2022-07-25T07:33:25.606Z,48.67
2022-07-25T07:35:52.072Z,48.40
2022-07-25T07:38:18.485Z,48.37
2022-07-25T07:40:45.067Z,47.47
2022-07-25T07:43:11.529Z,47.52
2022-07-25T07:45:37.936Z,48.60
2022-07-25T07:48:06.263Z,47.78
2022-07-25T07:50:32.722Z,48.73
2022-07-25T07:52:59.311Z,47.51
2022-07-25T07:55:44.170Z,47.58
2022-07-25T07:58:16.182Z,47.55
2022-07-25T08:00:47.310Z,47.44
2022-07-25T08:03:17.145Z,47.69
2022-07-25T08:05:46.497Z,48.94
2022-07-25T08:08:14.722Z,49.05
2022-07-25T08:10:46.999Z,50.21
2022-07-25T08:13:16.017Z,49.86
2022-07-25T08:15:44.515Z,49.95
2022-07-25T08:18:17.782Z,50.25
2022-07-25T08:20:46.137Z,49.72
2022-07-25T08:23:13.427Z,49.12
2022-07-25T08:25:40.420Z,49.08
2022-07-25T08:28:07.476Z,48.74
2022-07-25T08:30:35.488Z,48.11
2022-07-25T08:33:04.403Z,48.56
2022-07-25T08:35:32.851Z,48.71
2022-07-25T08:38:00.547Z,47.77
2022-07-25T08:40:29.571Z,47.51
2022-07-25T08:42:56.600Z,47.77
2022-07-25T08:45:24.300Z,47.30
2022-07-25T08:47:52.709Z,47.19
2022-07-25T08:50:22.706Z,47.41
2022-07-25T08:52:50.578Z,47.67
2022-07-25T08:55:22.400Z,48.09
2022-07-25T08:57:53.072Z,48.06
2022-07-25T09:00:22.475Z,47.91
2022-07-25T09:03:00.503Z,47.49
2022-07-25T09:05:29.129Z,47.60
2022-07-25T09:07:56.990Z,47.72
2022-07-25T09:10:26.403Z,46.92
2022-07-25T09:13:05.076Z,46.79
2022-07-25T09:15:34.335Z,46.45
2022-07-25T09:18:05.745Z,46.37
2022-07-25T09:20:39.707Z,46.03
2022-07-25T09:23:07.115Z,46.22
2022-07-25T09:25:34.045Z,46.35
2022-07-25T09:28:15.015Z,45.94
2022-07-25T09:30:54.747Z,45.85
2022-07-25T09:33:23.103Z,45.86
2022-07-25T09:35:49.553Z,46.12
2022-07-25T09:38:17.378Z,44.77
2022-07-25T09:41:01.320Z,43.44
2022-07-25T09:43:38.192Z,43.17
2022-07-25T09:46:05.704Z,43.21
2022-07-25T09:48:32.906Z,43.32
2022-07-25T09:50:59.602Z,43.53
2022-07-25T09:53:26.619Z,43.58
2022-07-25T09:55:57.093Z,43.95
2022-07-25T09:58:28.092Z,44.22
2022-07-25T10:01:00.646Z,43.56
2022-07-25T10:03:46.960Z,43.42
2022-07-25T10:06:28.119Z,44.71
2022-07-25T10:08:54.844Z,43.86
2022-07-25T10:11:27.739Z,42.41
2022-07-25T10:13:54.907Z,42.16
2022-07-25T10:16:26.270Z,42.79
2022-07-25T10:18:58.476Z,42.50
2022-07-25T10:21:27.992Z,42.04
2022-07-25T10:24:04.295Z,42.19
2022-07-25T10:26:32.409Z,41.86
2022-07-25T10:28:59.122Z,41.21
2022-07-25T10:31:31.644Z,40.75
2022-07-25T10:34:02.136Z,40.24
2022-07-25T10:36:42.745Z,39.58
2022-07-25T10:39:11.856Z,39.85
2022-07-25T10:42:02.998Z,40.57
2022-07-25T10:44:49.209Z,41.16
2022-07-25T10:47:17.530Z,40.46
2022-07-25T10:50:14.485Z,41.79
2022-07-25T10:52:41.425Z,41.46
2022-07-25T10:55:08.411Z,42.27
2022-07-25T10:57:35.768Z,41.98
2022-07-25T11:00:07.034Z,40.83
2022-07-25T11:02:33.714Z,40.80
2022-07-25T11:05:03.013Z,40.33
2022-07-25T11:07:35.776Z,40.59
2022-07-25T11:10:05.639Z,41.17
2022-07-25T11:12:32.543Z,42.13
2022-07-25T11:15:05.155Z,41.46
2022-07-25T11:17:32.170Z,39.88
2022-07-25T11:20:01.383Z,39.86
2022-07-25T11:22:33.102Z,40.04
2022-07-25T11:25:00.635Z,40.45
2022-07-25T11:27:27.315Z,39.98
2022-07-25T11:30:05.763Z,39.82
2022-07-25T11:32:40.425Z,39.80
2022-07-25T11:35:07.808Z,40.01
2022-07-25T11:37:38.300Z,40.00
2022-07-25T11:40:06.820Z,40.04
2022-07-25T11:43:00.017Z,39.21
2022-07-25T11:45:33.354Z,38.67
2022-07-25T11:48:07.465Z,38.91
2022-07-25T11:50:36.533Z,38.60
2022-07-25T11:53:05.707Z,37.32
2022-07-25T11:55:36.258Z,37.72
2022-07-25T11:58:04.884Z,37.73
2022-07-25T12:00:35.410Z,38.25
2022-07-25T12:03:37.354Z,38.08
2022-07-25T12:06:11.650Z,38.27
2022-07-25T12:08:40.946Z,38.93
2022-07-25T12:11:18.354Z,39.12
2022-07-25T12:13:45.049Z,40.12
2022-07-25T12:16:11.505Z,40.68
2022-07-25T12:18:38.541Z,40.87
2022-07-25T12:21:05.415Z,41.50
2022-07-25T12:23:32.278Z,40.75
2022-07-25T12:25:58.779Z,42.00
2022-07-25T12:28:25.229Z,41.96
2022-07-25T12:30:56.482Z,41.93
2022-07-25T12:33:23.941Z,42.31
2022-07-25T12:35:51.765Z,42.52
2022-07-25T12:38:18.285Z,42.19
2022-07-25T12:40:44.764Z,42.34
2022-07-25T12:43:11.252Z,42.19
2022-07-25T12:45:37.796Z,42.36
2022-07-25T12:48:04.877Z,41.96
2022-07-25T12:50:31.517Z,41.68
2022-07-25T12:52:57.994Z,41.37
2022-07-25T12:55:24.528Z,41.46
2022-07-25T12:57:51.295Z,40.44
2022-07-25T13:00:20.924Z,39.63
2022-07-25T13:02:48.577Z,39.74
2022-07-25T13:05:15.168Z,38.93
2022-07-25T13:07:41.641Z,38.70
2022-07-25T13:10:08.696Z,38.93
2022-07-25T13:12:35.321Z,38.17
2022-07-25T13:15:02.269Z,38.25
2022-07-25T13:17:28.800Z,38.46
2022-07-25T13:19:56.371Z,38.95
2022-07-25T13:22:23.637Z,38.83
2022-07-25T13:24:50.363Z,37.85
2022-07-25T13:27:20.810Z,37.83
2022-07-25T13:29:48.334Z,37.35
2022-07-25T13:32:15.027Z,35.59
2022-07-25T13:34:41.462Z,34.67
2022-07-25T13:37:08.025Z,34.31
2022-07-25T13:39:35.599Z,34.68
2022-07-25T13:42:02.044Z,35.45
2022-07-25T13:44:28.516Z,34.90
2022-07-25T13:46:55.029Z,34.86
2022-07-25T13:49:21.744Z,34.81
2022-07-25T13:51:48.197Z,35.03
2022-07-25T13:54:14.654Z,35.64
2022-07-25T13:56:42.290Z,36.01
2022-07-25T13:59:09.190Z,36.57
2022-07-25T14:01:36.117Z,36.66
2022-07-25T14:04:02.837Z,36.85
2022-07-25T14:06:29.358Z,37.18
2022-07-25T14:08:55.793Z,37.51
2022-07-25T14:11:24.860Z,38.11
2022-07-25T14:13:55.929Z,38.36
2022-07-25T14:16:22.422Z,38.53
2022-07-25T14:18:48.963Z,38.97
2022-07-25T14:21:15.370Z,39.60
2022-07-25T14:23:41.883Z,40.02
2022-07-25T14:26:08.412Z,40.37
2022-07-25T14:28:34.848Z,41.15
2022-07-25T14:31:01.377Z,41.19
2022-07-25T14:33:27.848Z,41.54
2022-07-25T14:35:54.311Z,42.30
2022-07-25T14:38:20.758Z,42.31
2022-07-25T14:40:47.877Z,42.67
2022-07-25T14:43:14.337Z,43.10
2022-07-25T14:45:41.629Z,42.77
2022-07-25T14:48:08.245Z,42.95
2022-07-25T14:50:34.650Z,43.35
2022-07-25T14:53:01.083Z,43.22
2022-07-25T14:55:27.664Z,43.54
2022-07-25T14:57:54.089Z,43.51
2022-07-25T15:00:22.779Z,43.45
2022-07-25T15:02:51.461Z,43.95
2022-07-25T15:05:17.926Z,43.91
2022-07-25T15:07:44.625Z,44.24
2022-07-25T15:10:11.090Z,43.95
2022-07-25T15:12:37.573Z,43.96
2022-07-25T15:15:04.772Z,44.03
2022-07-25T15:17:31.206Z,44.03
2022-07-25T15:19:58.074Z,44.24
2022-07-25T15:22:24.595Z,44.58
2022-07-25T15:25:22.452Z,45.38
2022-07-25T15:27:37.761Z,43.40
2022-07-25T15:30:05.954Z,42.59
2022-07-25T15:32:32.782Z,43.19
2022-07-25T15:34:59.325Z,42.86
2022-07-25T15:37:25.818Z,42.76
2022-07-25T15:39:52.264Z,42.55
2022-07-25T15:42:18.827Z,42.40
2022-07-25T15:44:45.236Z,41.87
2022-07-25T15:47:11.739Z,41.78
2022-07-25T15:49:38.266Z,41.96
2022-07-25T15:52:04.944Z,41.93
2022-07-25T15:54:31.469Z,41.38
2022-07-25T15:56:58.015Z,42.04
2022-07-25T15:59:24.563Z,41.45
2022-07-25T16:01:50.989Z,41.52
2022-07-25T16:04:17.496Z,41.35
2022-07-25T16:06:44.418Z,42.08
2022-07-25T16:09:12.425Z,41.94
2022-07-25T16:11:39.195Z,41.45
2022-07-25T16:14:05.828Z,40.26
2022-07-25T16:16:32.658Z,39.67
2022-07-25T16:18:59.158Z,39.74
2022-07-25T16:21:25.638Z,39.77
2022-07-25T16:23:52.377Z,39.50
2022-07-25T16:26:19.210Z,39.81
2022-07-25T16:28:47.474Z,39.49
2022-07-25T16:31:14.180Z,40.14
2022-07-25T16:33:40.868Z,39.63
2022-07-25T16:36:07.958Z,40.11
2022-07-25T16:38:34.761Z,39.70
2022-07-25T16:41:01.301Z,40.04
2022-07-25T16:43:27.709Z,40.03
2022-07-25T16:45:54.223Z,40.18
2022-07-25T16:48:20.648Z,40.60
2022-07-25T16:50:47.781Z,40.79
2022-07-25T16:53:14.312Z,40.54
2022-07-25T16:55:40.773Z,40.67
2022-07-25T16:58:07.289Z,43.27
2022-07-25T17:00:33.723Z,42.16
2022-07-25T17:03:00.980Z,41.01
2022-07-25T17:05:27.443Z,41.13
2022-07-25T17:07:59.573Z,39.95
2022-07-25T17:10:27.065Z,39.75
2022-07-25T17:12:53.579Z,39.88
2022-07-25T17:15:20.087Z,38.94
2022-07-25T17:17:46.559Z,38.41
2022-07-25T17:20:13.510Z,38.82
2022-07-25T17:22:39.981Z,38.94
2022-07-25T17:25:07.055Z,38.08
2022-07-25T17:27:33.549Z,38.17
2022-07-25T17:30:00.016Z,39.44
2022-07-25T17:32:29.930Z,37.96
2022-07-25T17:34:57.559Z,37.63
2022-07-25T17:37:24.281Z,36.70
2022-07-25T17:39:50.773Z,35.06
2022-07-25T17:42:22.062Z,34.38
2022-07-25T17:44:49.920Z,34.36
2022-07-25T17:47:17.116Z,35.03
2022-07-25T17:49:43.867Z,35.15
2022-07-25T17:52:13.277Z,35.13
2022-07-25T17:54:42.648Z,35.33
2022-07-25T17:57:09.472Z,35.54
2022-07-25T17:59:36.150Z,35.68
2022-07-25T18:02:03.118Z,35.74
2022-07-25T18:04:29.912Z,35.74
2022-07-25T18:06:56.756Z,35.86
2022-07-25T18:09:24.084Z,35.96
2022-07-25T18:11:51.052Z,36.14
2022-07-25T18:14:17.469Z,36.38
2022-07-25T18:16:45.355Z,36.48
2022-07-25T18:19:12.136Z,36.50
2022-07-25T18:21:38.844Z,37.00
2022-07-25T18:24:06.276Z,37.39
2022-07-25T18:26:33.800Z,37.37
2022-07-25T18:29:00.453Z,37.71
2022-07-25T18:31:27.010Z,37.90
2022-07-25T18:33:53.529Z,37.87
2022-07-25T18:36:20.001Z,37.85
2022-07-25T18:38:46.662Z,37.96
2022-07-25T18:41:28.517Z,37.87
2022-07-25T18:43:56.164Z,38.25
2022-07-25T18:46:22.882Z,38.70
2022-07-25T18:48:49.957Z,40.03
2022-07-25T18:51:16.577Z,39.92
2022-07-25T18:53:47.710Z,39.14
2022-07-25T18:56:15.641Z,39.41
2022-07-25T18:58:42.171Z,38.82
2022-07-25T19:01:09.296Z,39.56
2022-07-25T19:03:37.508Z,39.39
2022-07-25T19:06:04.967Z,39.12
2022-07-25T19:08:32.645Z,38.97
2022-07-25T19:10:59.177Z,39.24
2022-07-25T19:13:48.380Z,38.90
2022-07-25T19:16:12.368Z,39.21
2022-07-25T19:18:40.077Z,39.08
2022-07-25T19:21:07.209Z,39.97
2022-07-25T19:23:34.056Z,39.97
2022-07-25T19:26:01.998Z,40.09
2022-07-25T19:28:29.005Z,40.42
2022-07-25T19:30:56.592Z,40.39
2022-07-25T19:33:23.878Z,40.33
2022-07-25T19:35:50.404Z,41.15
2022-07-25T19:38:16.924Z,40.85
2022-07-25T19:40:43.421Z,40.60
2022-07-25T19:43:09.898Z,40.77
2022-07-25T19:45:38.934Z,40.47
2022-07-25T19:48:06.318Z,40.92
2022-07-25T19:50:32.844Z,41.42
2022-07-25T19:53:00.875Z,41.28
2022-07-25T19:55:28.052Z,40.96
2022-07-25T19:57:54.475Z,41.09
2022-07-25T20:00:21.138Z,41.61
2022-07-25T20:02:47.634Z,41.38
2022-07-25T20:05:14.863Z,42.04
2022-07-25T20:07:41.275Z,43.16
2022-07-25T20:10:08.662Z,43.14
2022-07-25T20:12:35.109Z,42.66
2022-07-25T20:15:01.989Z,42.69
2022-07-25T20:17:28.518Z,43.03
2022-07-25T20:19:55.008Z,43.31
2022-07-25T20:22:21.575Z,43.59
2022-07-25T20:24:48.018Z,43.95
2022-07-25T20:27:14.493Z,43.55
2022-07-25T20:29:40.959Z,43.76
2022-07-25T20:32:07.371Z,43.51
2022-07-25T20:34:33.812Z,43.81
2022-07-25T20:37:00.257Z,44.30
2022-07-25T20:39:28.693Z,44.20
2022-07-25T20:41:55.361Z,44.33
2022-07-25T20:44:21.885Z,44.28
2022-07-25T20:46:48.404Z,44.62
2022-07-25T20:49:14.919Z,44.95
2022-07-25T20:51:41.431Z,44.96
2022-07-25T20:54:08.089Z,45.36
2022-07-25T20:56:34.549Z,45.52
2022-07-25T20:59:00.985Z,45.62
2022-07-25T21:01:27.575Z,46.37
2022-07-25T21:03:54.051Z,46.17
2022-07-25T21:06:20.497Z,47.03
2022-07-25T21:08:53.714Z,47.05
2022-07-25T21:11:20.348Z,47.46
2022-07-25T21:13:46.825Z,47.86
2022-07-25T21:16:13.367Z,48.17
2022-07-25T21:18:39.915Z,48.43
2022-07-25T21:21:11.756Z,48.75
2022-07-25T21:23:38.810Z,48.86
2022-07-25T21:26:05.770Z,49.41
2022-07-25T21:28:32.198Z,49.65
2022-07-25T21:30:58.706Z,50.09
2022-07-25T21:33:25.194Z,50.22
2022-07-25T21:35:53.702Z,50.28
2022-07-25T21:38:26.023Z,50.93
2022-07-25T21:40:54.586Z,51.25
2022-07-25T21:43:21.201Z,51.93
2022-07-25T21:45:48.191Z,52.13
2022-07-25T21:48:14.697Z,52.54
2022-07-25T21:50:43.935Z,52.25
2022-07-25T21:53:13.105Z,52.56
2022-07-25T21:55:40.466Z,53.11
2022-07-25T21:58:08.074Z,52.98
2022-07-25T22:00:40.036Z,53.45
2022-07-25T22:03:10.572Z,53.57
2022-07-25T22:05:36.981Z,53.76
2022-07-25T22:08:03.604Z,53.82
2022-07-25T22:10:30.106Z,55.00
2022-07-25T22:12:56.645Z,55.33
2022-07-25T22:15:23.174Z,54.96
2022-07-25T22:17:50.194Z,55.08
2022-07-25T22:20:18.477Z,55.56
2022-07-25T22:22:48.442Z,55.58
2022-07-25T22:25:16.148Z,55.83
2022-07-25T22:27:43.326Z,55.83
2022-07-25T22:30:16.177Z,56.05
2022-07-25T22:32:46.213Z,56.30
2022-07-25T22:35:12.841Z,56.79
2022-07-25T22:37:39.381Z,57.22
2022-07-25T22:40:06.302Z,57.13
2022-07-25T22:42:32.888Z,56.89
2022-07-25T22:44:59.305Z,57.20
2022-07-25T22:47:25.725Z,57.47
2022-07-25T22:49:52.159Z,57.55
2022-07-25T22:52:18.682Z,57.94
2022-07-25T22:54:45.217Z,57.88
2022-07-25T22:57:11.794Z,57.71
2022-07-25T22:59:38.316Z,58.50
2022-07-25T23:02:04.890Z,59.00
2022-07-25T23:04:31.375Z,59.02
2022-07-25T23:06:57.862Z,58.80
2022-07-25T23:09:24.337Z,58.76
2022-07-25T23:12:00.181Z,59.48
2022-07-25T23:14:26.600Z,59.67
2022-07-25T23:17:11.681Z,59.62
2022-07-25T23:19:38.110Z,59.74
2022-07-25T23:22:04.610Z,59.71
2022-07-25T23:24:34.398Z,60.16
2022-07-25T23:27:04.140Z,60.48
2022-07-25T23:29:30.563Z,60.61
2022-07-25T23:31:57.061Z,60.70
2022-07-25T23:34:23.636Z,60.91
2022-07-25T23:36:50.132Z,61.21
2022-07-25T23:39:16.748Z,61.86
2022-07-25T23:41:43.164Z,61.61
2022-07-25T23:44:10.948Z,61.41
2022-07-25T23:46:38.664Z,61.87
2022-07-25T23:49:06.503Z,62.55
2022-07-25T23:51:33.444Z,63.19
2022-07-25T23:53:59.895Z,63.24
2022-07-25T23:56:26.464Z,63.42
2022-07-25T23:58:53.352Z,63.52
